Time;durP1;ratioP1;P1;durP2;ratioP2;P2;SDS_P1;SDS_P2;PMS_P1;PMS_P2;Temp;Humidity;BMP_temperature;BMP_pressure;BME280_temperature;BME280_humidity;BME280_pressure;Samples;Min_cycle;Max_cycle;Signal;HPM_P1;HPM_P2
2023/08/01 00:00:17;;;;;;;9.27;3.90;;;;;;;;;;5034415;28;20200;-37
2023/08/01 00:03:06;;;;;;;5.53;3.45;;;;;;;;;;5034208;28;20819;-38
2023/08/01 00:05:33;;;;;;;12.35;3.90;;;;;;;;;;5032796;28;20266;-38
2023/08/01 00:08:02;;;;;;;7.03;3.95;;;;;;;;;;5034275;28;20220;-37
2023/08/01 00:10:29;;;;;;;12.80;3.70;;;;;;;;;;5034263;28;20224;-38
2023/08/01 00:12:56;;;;;;;5.45;3.20;;;;;;;;;;5034094;28;20557;-37
2023/08/01 00:15:23;;;;;;;6.90;3.33;;;;;;;;;;5033957;28;20205;-38
2023/08/01 00:17:51;;;;;;;8.68;3.95;;;;;;;;;;5033983;28;20204;-38
2023/08/01 00:20:18;;;;;;;5.80;3.33;;;;;;;;;;5033907;28;20205;-37
2023/08/01 00:22:45;;;;;;;4.78;3.28;;;;;;;;;;5033859;28;20196;-37
2023/08/01 00:25:12;;;;;;;8.77;3.45;;;;;;;;;;5034235;28;20229;-38
2023/08/01 00:27:40;;;;;;;8.52;3.50;;;;;;;;;;5033928;28;20257;-38
2023/08/01 00:30:07;;;;;;;5.30;3.75;;;;;;;;;;5033687;28;20608;-38
2023/08/01 00:32:35;;;;;;;5.78;3.58;;;;;;;;;;5032600;28;20212;-37
2023/08/01 00:35:03;;;;;;;4.60;3.58;;;;;;;;;;5033887;28;20201;-38
2023/08/01 00:37:30;;;;;;;6.28;4.03;;;;;;;;;;5033645;28;20661;-37
2023/08/01 00:39:57;;;;;;;6.43;3.83;;;;;;;;;;5033904;28;20255;-38
2023/08/01 00:42:25;;;;;;;9.40;3.75;;;;;;;;;;5033674;28;20228;-38
2023/08/01 00:44:53;;;;;;;9.10;3.40;;;;;;;;;;5032400;28;20224;-38
2023/08/01 00:47:21;;;;;;;7.05;3.67;;;;;;;;;;5033459;28;20887;-37
2023/08/01 00:49:49;;;;;;;6.90;3.75;;;;;;;;;;5032227;28;20205;-37
2023/08/01 00:52:17;;;;;;;5.75;3.72;;;;;;;;;;5033856;28;20200;-38
2023/08/01 00:54:44;;;;;;;11.00;3.53;;;;;;;;;;5032484;28;20271;-37
2023/08/01 00:57:11;;;;;;;5.28;3.47;;;;;;;;;;5033998;28;20208;-37
2023/08/01 00:59:38;;;;;;;5.75;3.67;;;;;;;;;;5033486;28;20270;-38
2023/08/01 01:02:05;;;;;;;10.85;4.25;;;;;;;;;;5031935;28;20667;-38
2023/08/01 01:04:32;;;;;;;7.10;4.00;;;;;;;;;;5033202;28;20653;-38
2023/08/01 01:07:03;;;;;;;12.43;3.90;;;;;;;;;;5031838;28;20200;-38
2023/08/01 01:09:33;;;;;;;8.25;3.92;;;;;;;;;;5033240;28;20208;-37
2023/08/01 01:12:00;;;;;;;5.60;3.22;;;;;;;;;;5033351;28;20208;-37
2023/08/01 01:14:28;;;;;;;9.40;3.63;;;;;;;;;;5033469;28;20207;-38
2023/08/01 01:16:56;;;;;;;7.57;4.03;;;;;;;;;;5032453;28;20205;-37
2023/08/01 01:19:23;;;;;;;7.32;4.50;;;;;;;;;;5033313;28;20205;-38
2023/08/01 01:21:50;;;;;;;8.98;4.05;;;;;;;;;;5033462;28;20200;-37
2023/08/01 01:24:27;;;;;;;7.28;3.75;;;;;;;;;;5033475;28;20219;-37
2023/08/01 01:26:56;;;;;;;8.32;4.05;;;;;;;;;;5031795;28;20251;-38
2023/08/01 01:29:23;;;;;;;7.38;3.80;;;;;;;;;;5032493;28;20197;-37
2023/08/01 01:31:51;;;;;;;5.47;3.35;;;;;;;;;;5033033;28;20204;-37
2023/08/01 01:34:18;;;;;;;7.57;3.47;;;;;;;;;;5031979;28;20262;-37
2023/08/01 01:36:46;;;;;;;6.07;3.85;;;;;;;;;;5032884;28;20573;-37
2023/08/01 01:39:13;;;;;;;6.65;3.83;;;;;;;;;;5033260;28;20201;-37
2023/08/01 01:41:40;;;;;;;6.43;3.47;;;;;;;;;;5032787;28;20204;-37
2023/08/01 01:44:07;;;;;;;5.97;3.78;;;;;;;;;;5032915;28;20210;-37
2023/08/01 01:46:34;;;;;;;6.20;3.50;;;;;;;;;;5015243;28;20600;-38
2023/08/01 01:49:02;;;;;;;7.07;3.63;;;;;;;;;;5033116;28;20259;-38
2023/08/01 01:51:30;;;;;;;12.38;3.70;;;;;;;;;;5033021;28;20209;-38
2023/08/01 01:53:57;;;;;;;10.50;4.18;;;;;;;;;;5032616;28;20205;-38
2023/08/01 01:56:25;;;;;;;6.55;4.10;;;;;;;;;;5033094;28;20208;-37
2023/08/01 01:58:53;;;;;;;6.82;3.75;;;;;;;;;;5031863;28;20205;-38
2023/08/01 02:01:20;;;;;;;6.38;4.10;;;;;;;;;;5032010;28;20204;-37
2023/08/01 02:03:48;;;;;;;14.93;4.32;;;;;;;;;;5031569;28;20240;-38
2023/08/01 02:06:15;;;;;;;8.65;3.90;;;;;;;;;;5032653;28;20217;-38
2023/08/01 02:08:43;;;;;;;7.40;3.85;;;;;;;;;;5031553;28;20624;-37
2023/08/01 02:11:11;;;;;;;7.00;3.65;;;;;;;;;;5031627;28;20209;-37
2023/08/01 02:13:38;;;;;;;7.05;3.80;;;;;;;;;;5064919;28;20284;-37
2023/08/01 02:16:05;;;;;;;8.55;3.60;;;;;;;;;;5032440;28;20688;-37
2023/08/01 02:18:32;;;;;;;8.52;3.50;;;;;;;;;;5033728;28;20201;-37
2023/08/01 02:21:00;;;;;;;5.20;3.25;;;;;;;;;;5034597;28;20255;-37
2023/08/01 02:23:27;;;;;;;8.10;4.00;;;;;;;;;;5034931;28;20205;-38
2023/08/01 02:25:54;;;;;;;6.53;3.90;;;;;;;;;;5034522;28;20232;-37
2023/08/01 02:28:22;;;;;;;12.95;3.22;;;;;;;;;;5034695;28;20208;-37
2023/08/01 02:30:50;;;;;;;5.55;3.33;;;;;;;;;;5035877;28;20189;-37
2023/08/01 02:33:17;;;;;;;11.63;4.10;;;;;;;;;;5035654;28;20615;-37
2023/08/01 02:35:46;;;;;;;8.27;3.95;;;;;;;;;;5034417;28;20197;-38
2023/08/01 02:38:13;;;;;;;6.72;3.75;;;;;;;;;;5035848;28;20204;-37
2023/08/01 02:40:41;;;;;;;6.40;3.85;;;;;;;;;;5035462;28;20212;-38
2023/08/01 02:43:08;;;;;;;6.50;3.83;;;;;;;;;;5035623;28;20295;-37
2023/08/01 02:45:35;;;;;;;5.20;4.00;;;;;;;;;;5035421;28;20232;-38
2023/08/01 02:48:02;;;;;;;14.98;3.92;;;;;;;;;;5035544;28;20568;-37
2023/08/01 02:50:30;;;;;;;8.88;3.63;;;;;;;;;;5034447;28;20212;-37
2023/08/01 02:52:57;;;;;;;8.05;4.22;;;;;;;;;;5034466;28;20250;-38
2023/08/01 02:55:24;;;;;;;11.85;4.22;;;;;;;;;;5035224;28;20263;-38
2023/08/01 02:57:51;;;;;;;7.40;3.90;;;;;;;;;;5033971;28;20205;-37
2023/08/01 03:00:19;;;;;;;5.47;3.72;;;;;;;;;;5035452;28;20212;-37
2023/08/01 03:02:46;;;;;;;7.10;3.85;;;;;;;;;;5033686;28;20232;-38
2023/08/01 03:05:15;;;;;;;8.43;3.00;;;;;;;;;;5067264;28;20197;-38
2023/08/01 03:07:42;;;;;;;4.97;3.13;;;;;;;;;;5035177;28;20209;-37
2023/08/01 03:10:11;;;;;;;6.47;3.50;;;;;;;;;;5034970;28;20727;-38
2023/08/01 03:12:43;;;;;;;4.70;3.25;;;;;;;;;;5033730;28;20189;-37
2023/08/01 03:15:11;;;;;;;7.57;3.20;;;;;;;;;;5033715;28;20572;-38
2023/08/01 03:17:38;;;;;;;4.43;2.50;;;;;;;;;;5035110;28;20208;-38
2023/08/01 03:20:10;;;;;;;4.90;3.20;;;;;;;;;;5035048;28;20205;-37
2023/08/01 03:22:39;;;;;;;5.40;2.97;;;;;;;;;;5035421;28;20189;-37
2023/08/01 03:25:07;;;;;;;5.97;3.13;;;;;;;;;;5035107;28;20211;-37
2023/08/01 03:27:35;;;;;;;3.75;2.35;;;;;;;;;;5034986;28;20560;-37
2023/08/01 03:30:04;;;;;;;4.55;2.88;;;;;;;;;;5034577;28;20205;-38
2023/08/01 03:32:31;;;;;;;6.00;2.90;;;;;;;;;;5033647;28;20569;-37
2023/08/01 03:34:59;;;;;;;6.35;3.00;;;;;;;;;;5033588;28;20200;-37
2023/08/01 03:37:26;;;;;;;5.75;2.90;;;;;;;;;;5033498;28;20685;-37
2023/08/01 03:39:53;;;;;;;4.03;2.75;;;;;;;;;;5034707;28;20204;-38
2023/08/01 03:42:20;;;;;;;6.00;2.88;;;;;;;;;;5034580;28;20237;-38
2023/08/01 03:44:47;;;;;;;4.22;2.72;;;;;;;;;;5033635;28;20200;-37
2023/08/01 03:47:14;;;;;;;3.58;2.55;;;;;;;;;;5032805;28;20224;-37
2023/08/01 03:49:41;;;;;;;4.78;2.80;;;;;;;;;;5034437;28;20783;-38
2023/08/01 03:52:08;;;;;;;9.90;3.20;;;;;;;;;;5034729;28;20232;-38
2023/08/01 03:54:35;;;;;;;5.18;2.97;;;;;;;;;;5034548;28;20248;-37
2023/08/01 03:57:03;;;;;;;4.35;2.70;;;;;;;;;;5034386;28;20612;-37
2023/08/01 03:59:30;;;;;;;4.90;2.47;;;;;;;;;;5033323;28;20208;-37
2023/08/01 04:01:57;;;;;;;3.95;2.40;;;;;;;;;;5034795;28;20203;-37
2023/08/01 04:04:24;;;;;;;4.63;2.85;;;;;;;;;;5032713;28;20262;-37
2023/08/01 04:06:51;;;;;;;8.48;2.70;;;;;;;;;;5033958;28;20232;-38
2023/08/01 04:09:19;;;;;;;5.40;2.47;;;;;;;;;;5033930;28;20557;-37
2023/08/01 04:11:46;;;;;;;5.28;2.45;;;;;;;;;;5034423;28;20208;-37
2023/08/01 04:14:13;;;;;;;5.43;3.05;;;;;;;;;;5034137;28;20212;-37
2023/08/01 04:16:40;;;;;;;7.05;2.38;;;;;;;;;;5034232;28;20339;-37
2023/08/01 04:19:08;;;;;;;4.03;2.30;;;;;;;;;;5034205;28;20219;-38
2023/08/01 04:21:34;;;;;;;7.90;2.95;;;;;;;;;;5033793;28;20591;-38
2023/08/01 04:24:02;;;;;;;4.15;2.83;;;;;;;;;;5033769;28;20216;-37
2023/08/01 04:26:29;;;;;;;3.58;2.70;;;;;;;;;;5033708;28;20271;-38
2023/08/01 04:28:56;;;;;;;4.85;3.05;;;;;;;;;;5033919;28;20203;-38
2023/08/01 04:31:23;;;;;;;7.72;2.97;;;;;;;;;;5033783;28;20201;-37
2023/08/01 04:33:50;;;;;;;7.03;2.70;;;;;;;;;;5033854;28;20227;-38
2023/08/01 04:36:17;;;;;;;4.63;2.22;;;;;;;;;;5033732;28;20607;-37
2023/08/01 04:38:45;;;;;;;4.68;2.47;;;;;;;;;;5033545;28;20193;-37
2023/08/01 04:41:12;;;;;;;6.95;2.60;;;;;;;;;;5033215;28;20295;-37
2023/08/01 04:43:39;;;;;;;5.60;2.60;;;;;;;;;;5033494;28;20205;-38
2023/08/01 04:46:06;;;;;;;3.72;2.53;;;;;;;;;;5033565;28;20225;-38
2023/08/01 04:48:33;;;;;;;5.50;2.80;;;;;;;;;;5033693;28;20199;-37
2023/08/01 04:51:00;;;;;;;7.15;2.70;;;;;;;;;;5033491;28;20205;-37
2023/08/01 04:53:28;;;;;;;9.32;2.83;;;;;;;;;;5033739;28;20212;-37
2023/08/01 04:55:55;;;;;;;8.27;3.00;;;;;;;;;;5033738;28;20208;-37
2023/08/01 04:58:22;;;;;;;3.83;2.60;;;;;;;;;;5033333;28;20250;-37
2023/08/01 05:00:49;;;;;;;4.13;2.47;;;;;;;;;;5033551;28;20200;-38
2023/08/01 05:03:16;;;;;;;4.82;2.83;;;;;;;;;;5033397;28;20783;-38
2023/08/01 05:05:43;;;;;;;4.50;2.40;;;;;;;;;;5033160;28;20205;-37
2023/08/01 05:08:11;;;;;;;3.15;2.40;;;;;;;;;;5033704;28;20199;-38
2023/08/01 05:10:38;;;;;;;4.80;2.60;;;;;;;;;;5033159;28;20205;-38
2023/08/01 05:13:05;;;;;;;3.85;2.78;;;;;;;;;;5033301;28;20201;-37
2023/08/01 05:15:32;;;;;;;3.55;2.45;;;;;;;;;;5033251;28;20255;-39
2023/08/01 05:18:00;;;;;;;5.03;2.65;;;;;;;;;;5033145;28;20658;-37
2023/08/01 05:20:30;;;;;;;6.45;2.70;;;;;;;;;;5033172;28;20205;-38
2023/08/01 05:22:59;;;;;;;5.38;2.65;;;;;;;;;;5033535;28;20203;-37
2023/08/01 05:25:26;;;;;;;5.35;2.72;;;;;;;;;;5033435;28;20561;-38
2023/08/01 05:27:53;;;;;;;4.57;2.40;;;;;;;;;;5033089;28;20224;-37
2023/08/01 05:30:20;;;;;;;4.22;2.42;;;;;;;;;;5033494;28;20204;-37
2023/08/01 05:32:47;;;;;;;4.05;2.33;;;;;;;;;;5033164;28;20216;-38
2023/08/01 05:35:14;;;;;;;4.63;1.98;;;;;;;;;;5033316;28;20283;-37
2023/08/01 05:37:42;;;;;;;5.38;2.20;;;;;;;;;;5033025;28;20653;-38
2023/08/01 05:40:09;;;;;;;3.22;2.15;;;;;;;;;;5033175;28;20578;-37
2023/08/01 05:42:36;;;;;;;5.47;2.15;;;;;;;;;;5033168;28;20657;-37
2023/08/01 05:45:04;;;;;;;4.72;2.22;;;;;;;;;;5033190;28;20216;-37
2023/08/01 05:47:31;;;;;;;4.28;2.20;;;;;;;;;;5033181;28;20235;-38
2023/08/01 05:49:58;;;;;;;7.75;1.60;;;;;;;;;;5033172;28;20607;-38
2023/08/01 05:52:26;;;;;;;3.97;1.77;;;;;;;;;;5035531;28;20208;-38
2023/08/01 05:54:52;;;;;;;2.78;1.77;;;;;;;;;;5036766;28;20205;-37
2023/08/01 05:57:20;;;;;;;2.80;1.83;;;;;;;;;;5036814;28;20668;-37
2023/08/01 05:59:47;;;;;;;4.97;1.90;;;;;;;;;;5036626;28;20677;-38
2023/08/01 06:02:14;;;;;;;4.97;1.77;;;;;;;;;;5036660;28;20228;-37
2023/08/01 06:04:41;;;;;;;5.13;2.05;;;;;;;;;;5036857;28;20181;-37
2023/08/01 06:07:09;;;;;;;3.97;1.70;;;;;;;;;;5036724;28;20224;-37
2023/08/01 06:09:36;;;;;;;2.28;1.50;;;;;;;;;;5036546;28;20287;-38
2023/08/01 06:12:03;;;;;;;4.10;1.75;;;;;;;;;;5036321;28;20215;-37
2023/08/01 06:14:30;;;;;;;3.67;1.70;;;;;;;;;;5036298;28;20201;-38
2023/08/01 06:16:57;;;;;;;2.22;1.33;;;;;;;;;;5037016;28;20677;-38
2023/08/01 06:19:24;;;;;;;1.95;1.08;;;;;;;;;;5036446;28;20228;-37
2023/08/01 06:21:52;;;;;;;3.60;1.30;;;;;;;;;;5036352;28;20219;-37
2023/08/01 06:24:19;;;;;;;2.58;1.25;;;;;;;;;;5036168;28;20204;-37
2023/08/01 06:26:46;;;;;;;1.98;1.30;;;;;;;;;;5036243;28;20231;-37
2023/08/01 06:29:13;;;;;;;3.92;1.30;;;;;;;;;;5036259;28;20562;-37
2023/08/01 06:31:41;;;;;;;1.63;1.40;;;;;;;;;;5036263;28;20259;-37
2023/08/01 06:34:08;;;;;;;3.45;1.20;;;;;;;;;;5036265;28;20201;-38
2023/08/01 06:36:35;;;;;;;1.85;1.00;;;;;;;;;;5035910;28;20572;-38
2023/08/01 06:39:03;;;;;;;2.42;1.20;;;;;;;;;;5036157;28;20205;-37
2023/08/01 06:41:30;;;;;;;1.33;0.93;;;;;;;;;;5035738;28;20205;-37
2023/08/01 06:43:57;;;;;;;4.97;1.42;;;;;;;;;;5035925;28;20211;-37
2023/08/01 06:46:24;;;;;;;1.65;1.10;;;;;;;;;;5035791;28;20232;-38
2023/08/01 06:48:51;;;;;;;4.10;1.40;;;;;;;;;;5035825;28;20278;-37
2023/08/01 06:51:19;;;;;;;2.58;1.17;;;;;;;;;;5036012;28;20200;-37
2023/08/01 06:53:46;;;;;;;1.73;1.17;;;;;;;;;;5035722;28;20205;-38
2023/08/01 06:56:13;;;;;;;1.55;1.08;;;;;;;;;;5034368;28;20204;-37
2023/08/01 06:58:40;;;;;;;4.07;1.38;;;;;;;;;;5035735;28;20208;-37
2023/08/01 07:01:07;;;;;;;4.45;1.35;;;;;;;;;;5017293;28;20265;-37
2023/08/01 07:03:34;;;;;;;2.33;1.17;;;;;;;;;;5034526;28;20775;-37
2023/08/01 07:06:02;;;;;;;2.08;1.33;;;;;;;;;;5035338;28;20666;-37
2023/08/01 07:08:32;;;;;;;6.15;1.73;;;;;;;;;;5035268;28;20645;-37
2023/08/01 07:10:59;;;;;;;3.47;1.30;;;;;;;;;;5035216;28;20615;-37
2023/08/01 07:13:26;;;;;;;1.73;1.20;;;;;;;;;;5035613;28;20220;-37
2023/08/01 07:15:54;;;;;;;2.45;1.35;;;;;;;;;;5035455;28;20216;-37
2023/08/01 07:18:21;;;;;;;1.92;1.20;;;;;;;;;;5035534;28;20204;-37
2023/08/01 07:20:59;;;;;;;4.60;1.30;;;;;;;;;;5035080;28;20206;-37
2023/08/01 07:23:26;;;;;;;6.18;1.27;;;;;;;;;;5035690;28;20189;-37
2023/08/01 07:25:53;;;;;;;3.83;1.10;;;;;;;;;;5034946;28;20243;-37
2023/08/01 07:28:20;;;;;;;8.13;1.20;;;;;;;;;;5035334;28;20230;-38
2023/08/01 07:31:05;;;;;;;1.52;1.00;;;;;;;;;;5035049;28;20204;-37
2023/08/01 07:33:33;;;;;;;2.00;1.38;;;;;;;;;;5033708;28;20561;-37
2023/08/01 07:36:00;;;;;;;5.55;1.52;;;;;;;;;;5035037;28;20223;-37
2023/08/01 07:38:27;;;;;;;3.00;1.33;;;;;;;;;;5034844;28;20211;-38
2023/08/01 07:40:55;;;;;;;3.10;1.50;;;;;;;;;;5034871;28;20207;-37
2023/08/01 07:43:23;;;;;;;1.95;1.20;;;;;;;;;;5034898;28;20287;-37
2023/08/01 07:45:55;;;;;;;2.70;1.15;;;;;;;;;;5034496;28;20197;-37
2023/08/01 07:48:23;;;;;;;1.83;1.20;;;;;;;;;;5034526;28;20295;-38
2023/08/01 07:50:50;;;;;;;2.75;1.40;;;;;;;;;;5034467;28;20200;-38
2023/08/01 07:53:17;;;;;;;5.00;1.10;;;;;;;;;;5034667;28;20209;-37
2023/08/01 07:55:44;;;;;;;1.33;0.77;;;;;;;;;;5033300;28;20215;-37
2023/08/01 07:58:11;;;;;;;1.50;1.05;;;;;;;;;;5034409;28;20255;-37
2023/08/01 08:00:39;;;;;;;1.65;1.30;;;;;;;;;;5034230;28;20209;-37
2023/08/01 08:03:08;;;;;;;1.67;1.15;;;;;;;;;;5034446;28;20324;-38
2023/08/01 08:05:38;;;;;;;3.08;1.15;;;;;;;;;;5033510;28;20207;-37
2023/08/01 08:08:06;;;;;;;2.08;1.10;;;;;;;;;;5034477;28;20323;-37
2023/08/01 08:10:33;;;;;;;4.22;1.38;;;;;;;;;;5034200;28;20550;-38
2023/08/01 08:13:00;;;;;;;1.95;1.10;;;;;;;;;;5033871;28;20232;-38
2023/08/01 08:15:29;;;;;;;1.58;1.05;;;;;;;;;;5033092;28;20200;-38
2023/08/01 08:17:56;;;;;;;1.85;1.20;;;;;;;;;;5034100;28;20232;-37
2023/08/01 08:20:24;;;;;;;1.90;1.17;;;;;;;;;;5033998;28;20221;-37
2023/08/01 08:22:51;;;;;;;4.40;1.13;;;;;;;;;;5033832;28;20207;-37
2023/08/01 08:25:18;;;;;;;2.30;1.33;;;;;;;;;;5034094;28;20243;-38
2023/08/01 08:27:45;;;;;;;1.45;1.05;;;;;;;;;;5033669;28;20220;-37
2023/08/01 08:30:12;;;;;;;1.80;1.17;;;;;;;;;;5033781;28;20658;-37
2023/08/01 08:32:39;;;;;;;3.58;1.23;;;;;;;;;;5034067;28;20287;-37
2023/08/01 08:35:07;;;;;;;2.17;1.30;;;;;;;;;;5034312;28;20538;-38
2023/08/01 08:37:34;;;;;;;1.92;1.15;;;;;;;;;;5033708;28;20228;-37
2023/08/01 08:40:01;;;;;;;2.65;1.33;;;;;;;;;;5033679;28;20213;-37
2023/08/01 08:42:28;;;;;;;2.33;1.20;;;;;;;;;;5033745;28;20215;-38
2023/08/01 08:44:56;;;;;;;2.88;1.30;;;;;;;;;;5033929;28;20556;-37
2023/08/01 08:47:27;;;;;;;3.03;1.00;;;;;;;;;;5032602;28;20228;-37
2023/08/01 08:49:59;;;;;;;1.95;1.20;;;;;;;;;;5033506;28;20601;-37
2023/08/01 08:52:26;;;;;;;2.42;1.25;;;;;;;;;;5033521;28;20657;-37
2023/08/01 08:54:54;;;;;;;1.95;1.00;;;;;;;;;;5033382;28;20204;-38
2023/08/01 08:57:22;;;;;;;1.92;1.33;;;;;;;;;;5033823;28;20258;-38
2023/08/01 08:59:49;;;;;;;1.52;1.05;;;;;;;;;;5033446;28;20201;-38
2023/08/01 09:02:17;;;;;;;2.33;1.40;;;;;;;;;;5033650;28;20212;-37
2023/08/01 09:04:44;;;;;;;4.97;1.17;;;;;;;;;;5033321;28;20614;-38
2023/08/01 09:07:14;;;;;;;3.28;1.15;;;;;;;;;;5033307;28;20608;-37
2023/08/01 09:09:41;;;;;;;1.70;1.08;;;;;;;;;;5032117;28;20572;-38
2023/08/01 09:12:09;;;;;;;3.47;1.35;;;;;;;;;;5033771;28;20231;-37
2023/08/01 09:14:36;;;;;;;6.05;1.42;;;;;;;;;;5033379;28;20204;-37
2023/08/01 09:17:09;;;;;;;1.95;1.40;;;;;;;;;;5033501;28;20201;-37
2023/08/01 09:19:37;;;;;;;3.05;1.20;;;;;;;;;;5033209;28;20803;-37
2023/08/01 09:22:10;;;;;;;3.63;1.40;;;;;;;;;;5033217;28;20205;-37
2023/08/01 09:24:38;;;;;;;2.45;1.30;;;;;;;;;;5033565;28;20200;-37
2023/08/01 09:27:06;;;;;;;2.72;1.38;;;;;;;;;;5035408;28;20228;-38
2023/08/01 09:29:33;;;;;;;2.92;1.33;;;;;;;;;;5037358;28;20200;-37
2023/08/01 09:32:00;;;;;;;3.20;1.13;;;;;;;;;;5037166;28;20211;-38
2023/08/01 09:34:27;;;;;;;2.60;1.30;;;;;;;;;;5035756;28;20691;-37
2023/08/01 09:36:59;;;;;;;2.22;1.23;;;;;;;;;;5037309;28;20232;-37
2023/08/01 09:39:26;;;;;;;3.60;1.33;;;;;;;;;;5036920;28;20708;-37
2023/08/01 09:42:01;;;;;;;1.73;1.20;;;;;;;;;;5037106;28;20201;-37
2023/08/01 09:44:29;;;;;;;14.45;1.40;;;;;;;;;;5036829;28;20204;-37
2023/08/01 09:47:01;;;;;;;2.17;1.38;;;;;;;;;;5036791;28;20683;-37
2023/08/01 09:49:28;;;;;;;3.67;1.35;;;;;;;;;;5037089;28;20247;-37
2023/08/01 09:51:56;;;;;;;2.20;1.52;;;;;;;;;;5037015;28;20201;-37
2023/08/01 09:54:24;;;;;;;2.67;1.25;;;;;;;;;;5036674;28;20658;-37
2023/08/01 09:56:52;;;;;;;2.33;1.50;;;;;;;;;;5036645;28;20552;-37
2023/08/01 09:59:24;;;;;;;3.42;1.23;;;;;;;;;;5035403;28;20208;-38
2023/08/01 10:01:52;;;;;;;1.42;1.10;;;;;;;;;;5036960;28;20220;-37
2023/08/01 10:04:26;;;;;;;2.63;1.25;;;;;;;;;;5036397;28;20378;-39
2023/08/01 10:06:58;;;;;;;1.90;1.30;;;;;;;;;;5036546;28;20572;-37
2023/08/01 10:09:26;;;;;;;2.35;1.33;;;;;;;;;;5036621;28;20205;-37
2023/08/01 10:11:56;;;;;;;1.50;1.27;;;;;;;;;;5036642;28;20607;-38
2023/08/01 10:14:23;;;;;;;3.15;1.30;;;;;;;;;;5036700;28;20212;-37
2023/08/01 10:16:51;;;;;;;2.92;1.45;;;;;;;;;;5036306;28;20246;-37
2023/08/01 10:19:19;;;;;;;1.73;1.00;;;;;;;;;;5068470;28;20585;-37
2023/08/01 10:21:47;;;;;;;2.65;1.05;;;;;;;;;;5036186;28;20200;-37
2023/08/01 10:24:16;;;;;;;1.95;1.00;;;;;;;;;;5035190;28;20205;-37
2023/08/01 10:26:46;;;;;;;4.38;1.10;;;;;;;;;;5019012;28;20211;-37
2023/08/01 10:29:14;;;;;;;1.63;1.10;;;;;;;;;;5036373;28;20224;-37
2023/08/01 10:31:51;;;;;;;1.10;1.00;;;;;;;;;;5017711;28;20224;-37
2023/08/01 10:34:20;;;;;;;2.25;1.00;;;;;;;;;;5036335;28;20197;-37
2023/08/01 10:36:57;;;;;;;2.83;1.40;;;;;;;;;;5036152;28;20291;-37
2023/08/01 10:39:26;;;;;;;2.15;1.20;;;;;;;;;;5035261;28;20184;-38
2023/08/01 10:42:04;;;;;;;2.75;1.20;;;;;;;;;;5035956;28;20216;-37
2023/08/01 10:44:34;;;;;;;2.15;1.00;;;;;;;;;;5035864;28;20208;-39
2023/08/01 10:47:03;;;;;;;1.98;1.10;;;;;;;;;;5036103;28;20205;-39
2023/08/01 10:49:42;;;;;;;1.50;1.13;;;;;;;;;;5034439;28;20240;-38
2023/08/01 10:52:27;;;;;;;2.13;1.25;;;;;;;;;;5036227;28;20201;-38
2023/08/01 10:54:59;;;;;;;3.03;1.42;;;;;;;;;;5035588;28;20207;-39
2023/08/01 10:57:30;;;;;;;1.52;1.13;;;;;;;;;;5035728;28;20263;-39
2023/08/01 10:59:58;;;;;;;3.47;1.38;;;;;;;;;;5035556;28;20654;-38
2023/08/01 11:02:28;;;;;;;1.50;1.35;;;;;;;;;;5035380;28;20219;-38
2023/08/01 11:05:02;;;;;;;1.27;1.13;;;;;;;;;;5035375;28;20752;-39
2023/08/01 11:07:29;;;;;;;1.70;1.10;;;;;;;;;;5035594;28;20271;-39
2023/08/01 11:10:13;;;;;;;1.52;1.08;;;;;;;;;;5035396;28;20212;-39
2023/08/01 11:12:42;;;;;;;3.40;1.00;;;;;;;;;;5035889;28;20205;-39
2023/08/01 11:15:14;;;;;;;7.57;1.48;;;;;;;;;;5035255;28;20204;-39
2023/08/01 11:17:42;;;;;;;4.40;1.35;;;;;;;;;;5035262;28;20696;-38
2023/08/01 11:20:11;;;;;;;1.60;1.27;;;;;;;;;;5016991;28;20563;-39
2023/08/01 11:22:52;;;;;;;2.10;1.27;;;;;;;;;;5035271;28;20657;-39
2023/08/01 11:25:30;;;;;;;2.45;1.20;;;;;;;;;;5035332;28;20236;-40
2023/08/01 11:27:57;;;;;;;1.73;1.00;;;;;;;;;;5035290;28;20217;-39
2023/08/01 11:30:33;;;;;;;1.98;1.20;;;;;;;;;;5035006;28;20581;-39
2023/08/01 11:33:02;;;;;;;1.73;1.40;;;;;;;;;;5035073;28;20205;-38
2023/08/01 11:35:30;;;;;;;2.17;1.45;;;;;;;;;;5035156;28;20565;-39
2023/08/01 11:37:58;;;;;;;5.03;1.55;;;;;;;;;;5034812;28;20567;-38
2023/08/01 11:40:25;;;;;;;1.55;1.38;;;;;;;;;;5034666;28;20207;-38
2023/08/01 11:42:56;;;;;;;2.05;1.30;;;;;;;;;;5034851;28;20255;-38
2023/08/01 11:45:24;;;;;;;2.55;1.30;;;;;;;;;;5034636;28;20192;-39
2023/08/01 11:47:51;;;;;;;1.20;1.10;;;;;;;;;;5034603;28;20225;-38
2023/08/01 11:50:23;;;;;;;2.90;1.77;;;;;;;;;;5034383;28;20538;-39
2023/08/01 11:52:50;;;;;;;2.60;1.30;;;;;;;;;;5034910;28;20242;-39
2023/08/01 11:55:19;;;;;;;3.83;1.67;;;;;;;;;;5034937;28;20204;-38
2023/08/01 11:57:56;;;;;;;1.45;1.20;;;;;;;;;;5034596;28;20208;-38
2023/08/01 12:00:26;;;;;;;2.42;1.23;;;;;;;;;;5034515;28;20211;-39
2023/08/01 12:03:15;;;;;;;1.58;1.20;;;;;;;;;;5034239;28;20274;-39
2023/08/01 12:05:45;;;;;;;3.20;1.55;;;;;;;;;;5034398;28;20351;-38
2023/08/01 12:08:15;;;;;;;2.30;1.52;;;;;;;;;;5034394;28;20220;-38
2023/08/01 12:10:45;;;;;;;2.17;1.67;;;;;;;;;;5034139;28;20688;-38
2023/08/01 12:13:23;;;;;;;1.40;1.30;;;;;;;;;;5034245;28;20719;-39
2023/08/01 12:15:51;;;;;;;2.08;1.40;;;;;;;;;;5034382;28;20266;-38
2023/08/01 12:18:25;;;;;;;1.67;1.17;;;;;;;;;;5034562;28;20213;-39
2023/08/01 12:20:56;;;;;;;2.00;1.60;;;;;;;;;;5034127;28;20266;-39
2023/08/01 12:23:23;;;;;;;1.95;1.30;;;;;;;;;;5033908;28;20201;-39
2023/08/01 12:25:50;;;;;;;1.98;1.45;;;;;;;;;;5032930;28;20204;-38
2023/08/01 12:28:17;;;;;;;1.45;1.20;;;;;;;;;;5033811;28;20279;-40
2023/08/01 12:30:45;;;;;;;2.45;1.23;;;;;;;;;;5033873;28;20216;-40
2023/08/01 12:33:12;;;;;;;2.05;1.10;;;;;;;;;;5033787;28;20291;-38
2023/08/01 12:35:40;;;;;;;2.58;1.42;;;;;;;;;;5033705;28;20201;-39
2023/08/01 12:38:09;;;;;;;1.50;1.10;;;;;;;;;;5032526;28;20211;-39
2023/08/01 12:40:36;;;;;;;2.30;1.50;;;;;;;;;;5034035;28;20201;-39
2023/08/01 12:43:03;;;;;;;2.38;1.30;;;;;;;;;;5033909;28;20562;-38
2023/08/01 12:45:31;;;;;;;1.50;1.30;;;;;;;;;;5033826;28;20278;-38
2023/08/01 12:47:58;;;;;;;1.90;1.30;;;;;;;;;;5033745;28;20270;-39
2023/08/01 12:50:25;;;;;;;2.75;1.50;;;;;;;;;;5033904;28;20258;-38
2023/08/01 12:52:52;;;;;;;2.03;1.38;;;;;;;;;;5032517;28;20311;-38
2023/08/01 12:55:20;;;;;;;2.70;1.50;;;;;;;;;;5033815;28;20239;-38
2023/08/01 12:57:47;;;;;;;1.75;1.25;;;;;;;;;;5033595;28;20215;-39
2023/08/01 13:00:14;;;;;;;1.48;1.33;;;;;;;;;;5033736;28;20197;-38
2023/08/01 13:02:41;;;;;;;1.65;1.40;;;;;;;;;;5032776;28;20256;-39
2023/08/01 13:05:09;;;;;;;1.63;1.17;;;;;;;;;;5033545;28;20703;-39
2023/08/01 13:07:36;;;;;;;2.22;1.40;;;;;;;;;;5033369;28;20649;-38
2023/08/01 13:10:04;;;;;;;2.28;1.42;;;;;;;;;;5033543;28;20228;-38
2023/08/01 13:12:31;;;;;;;3.65;1.48;;;;;;;;;;5033497;28;20292;-38
2023/08/01 13:14:58;;;;;;;4.45;2.00;;;;;;;;;;5033320;28;20196;-39
2023/08/01 13:17:42;;;;;;;3.15;1.52;;;;;;;;;;5033298;28;20725;-38
2023/08/01 13:20:10;;;;;;;2.35;1.50;;;;;;;;;;5033167;28;20212;-39
2023/08/01 13:22:37;;;;;;;1.77;1.30;;;;;;;;;;5033674;28;20270;-39
2023/08/01 13:25:06;;;;;;;3.50;1.77;;;;;;;;;;5033159;28;20204;-38
2023/08/01 13:27:36;;;;;;;4.53;1.70;;;;;;;;;;5031942;28;20210;-38
2023/08/01 13:30:03;;;;;;;2.47;1.52;;;;;;;;;;5033656;28;20232;-39
2023/08/01 13:32:30;;;;;;;1.95;1.33;;;;;;;;;;5033436;28;20254;-38
2023/08/01 13:34:57;;;;;;;1.48;1.17;;;;;;;;;;5033270;28;20204;-38
2023/08/01 13:37:25;;;;;;;1.92;1.38;;;;;;;;;;5033117;28;20196;-38
2023/08/01 13:39:52;;;;;;;2.08;1.67;;;;;;;;;;5033017;28;20214;-38
2023/08/01 13:42:19;;;;;;;3.75;1.55;;;;;;;;;;5033075;28;20211;-39
2023/08/01 13:44:46;;;;;;;2.30;1.30;;;;;;;;;;5033589;28;20201;-38
2023/08/01 13:47:13;;;;;;;1.80;1.33;;;;;;;;;;5033389;28;20231;-39
2023/08/01 13:49:41;;;;;;;3.33;1.15;;;;;;;;;;5032825;28;20727;-39
2023/08/01 13:52:08;;;;;;;3.53;1.40;;;;;;;;;;5032499;28;20207;-40
2023/08/01 13:54:35;;;;;;;4.30;1.60;;;;;;;;;;5032970;28;20251;-38
2023/08/01 13:57:02;;;;;;;2.55;1.70;;;;;;;;;;5033269;28;20258;-39
2023/08/01 13:59:29;;;;;;;2.95;1.42;;;;;;;;;;5033288;28;20208;-38
2023/08/01 14:01:57;;;;;;;2.80;1.60;;;;;;;;;;5032934;28;20208;-38
2023/08/01 14:04:24;;;;;;;1.52;1.33;;;;;;;;;;5033275;28;20237;-38
2023/08/01 14:06:51;;;;;;;4.80;1.77;;;;;;;;;;5032708;28;20661;-38
2023/08/01 14:09:18;;;;;;;2.28;1.50;;;;;;;;;;5032626;28;20221;-40
2023/08/01 14:11:45;;;;;;;2.22;1.77;;;;;;;;;;5032730;28;20212;-38
2023/08/01 14:14:13;;;;;;;2.47;1.50;;;;;;;;;;5036482;28;20211;-39
2023/08/01 14:16:43;;;;;;;4.13;1.60;;;;;;;;;;5036481;28;20205;-40
2023/08/01 14:19:11;;;;;;;4.68;1.83;;;;;;;;;;5036537;28;20205;-39
2023/08/01 14:21:38;;;;;;;2.60;1.65;;;;;;;;;;5036187;28;20573;-39
2023/08/01 14:24:06;;;;;;;2.47;1.52;;;;;;;;;;5036092;28;20204;-39
2023/08/01 14:26:33;;;;;;;1.45;1.15;;;;;;;;;;5036191;28;20584;-38
2023/08/01 14:29:00;;;;;;;2.58;1.60;;;;;;;;;;5036191;28;20283;-39
2023/08/01 14:31:27;;;;;;;2.25;1.50;;;;;;;;;;5036069;28;20211;-38
2023/08/01 14:33:54;;;;;;;6.18;1.67;;;;;;;;;;5036154;28;20549;-38
2023/08/01 14:36:21;;;;;;;1.67;1.33;;;;;;;;;;5035861;28;20665;-39
2023/08/01 14:38:54;;;;;;;2.58;1.67;;;;;;;;;;5036287;28;20212;-39
2023/08/01 14:41:24;;;;;;;8.07;1.83;;;;;;;;;;5036245;28;20199;-38
2023/08/01 14:44:11;;;;;;;2.72;1.33;;;;;;;;;;5036085;28;20220;-38
2023/08/01 14:46:38;;;;;;;2.00;1.60;;;;;;;;;;5036036;28;20296;-39
2023/08/01 14:49:06;;;;;;;1.50;1.20;;;;;;;;;;5035670;28;20247;-38